Time;durP1;ratioP1;P1;durP2;ratioP2;P2;SDS_P1;SDS_P2;PMS_P1;PMS_P2;Temp;Humidity;BMP_temperature;BMP_pressure;BME280_temperature;BME280_humidity;BME280_pressure;Samples;Min_cycle;Max_cycle;Signal;HPM_P1;HPM_P2
2021/12/11 00:00:55;;;;;;;5.95;1.10;;;19.40;99.90;;;;;;5073360;28;20189;-76
2021/12/11 00:03:28;;;;;;;3.85;0.80;;;19.40;99.90;;;;;;5081069;28;20233;-77
2021/12/11 00:06:08;;;;;;;4.32;0.88;;;19.50;99.90;;;;;;5088167;28;20648;-73
2021/12/11 00:08:40;;;;;;;4.65;0.95;;;19.90;99.90;;;;;;5086268;28;20196;-74
2021/12/11 00:11:17;;;;;;;3.70;0.73;;;20.20;99.90;;;;;;5078778;28;20192;-72
2021/12/11 00:13:48;;;;;;;6.05;1.08;;;20.50;99.90;;;;;;5083528;28;20181;-73
2021/12/11 00:16:22;;;;;;;3.72;0.90;;;20.70;99.90;;;;;;5091067;28;20196;-73
2021/12/11 00:18:55;;;;;;;5.43;1.15;;;20.70;99.90;;;;;;5078405;28;20211;-74
2021/12/11 00:21:27;;;;;;;2.80;1.40;;;20.70;99.90;;;;;;5081932;28;20181;-75
2021/12/11 00:24:03;;;;;;;4.93;1.08;;;20.80;99.90;;;;;;5084740;28;20213;-74
2021/12/11 00:26:42;;;;;;;3.67;0.80;;;20.80;99.90;;;;;;5073239;28;20648;-73
2021/12/11 00:29:15;;;;;;;4.28;0.75;;;20.70;99.90;;;;;;5082133;28;20594;-74
2021/12/11 00:31:52;;;;;;;3.97;0.80;;;20.60;99.90;;;;;;5081707;28;20602;-73
2021/12/11 00:34:27;;;;;;;3.58;0.80;;;20.70;99.90;;;;;;5087259;28;20232;-73
2021/12/11 00:37:00;;;;;;;3.60;0.75;;;20.70;99.90;;;;;;5081882;28;20195;-74
2021/12/11 00:39:38;;;;;;;4.60;0.90;;;20.90;99.90;;;;;;5080687;28;20648;-75
2021/12/11 00:42:13;;;;;;;4.28;0.80;;;21.00;99.90;;;;;;5082732;28;20239;-74
2021/12/11 00:44:51;;;;;;;4.95;0.90;;;21.00;99.90;;;;;;5078029;28;20185;-75
2021/12/11 00:47:25;;;;;;;5.82;1.00;;;21.10;99.90;;;;;;5088589;28;20195;-75
2021/12/11 00:49:59;;;;;;;3.50;1.00;;;21.00;99.90;;;;;;5082810;28;20555;-74
2021/12/11 00:52:40;;;;;;;4.80;1.00;;;21.00;99.90;;;;;;5077055;28;20189;-74
2021/12/11 00:55:19;;;;;;;3.80;0.77;;;21.00;99.90;;;;;;5074689;28;20279;-74
2021/12/11 00:58:08;;;;;;;3.17;0.80;;;20.90;99.90;;;;;;5074451;28;20536;-74
2021/12/11 01:00:44;;;;;;;6.43;0.90;;;20.70;99.90;;;;;;5075304;28;20205;-75
2021/12/11 01:03:16;;;;;;;2.97;0.73;;;20.70;99.90;;;;;;5074666;28;20216;-75
2021/12/11 01:05:49;;;;;;;4.57;0.80;;;20.70;99.90;;;;;;5077916;28;20197;-76
2021/12/11 01:08:24;;;;;;;3.72;0.80;;;20.80;99.90;;;;;;5076647;28;20601;-74
2021/12/11 01:11:01;;;;;;;2.58;0.70;;;21.00;99.90;;;;;;5075864;28;20329;-73
2021/12/11 01:13:40;;;;;;;4.50;0.50;;;21.20;99.90;;;;;;5073240;28;20202;-75
2021/12/11 01:16:14;;;;;;;2.70;0.70;;;21.40;99.90;;;;;;5076511;28;20196;-75
2021/12/11 01:18:49;;;;;;;2.67;0.90;;;21.50;99.90;;;;;;5074108;28;20202;-75
2021/12/11 01:21:31;;;;;;;3.35;0.73;;;21.60;99.90;;;;;;5078810;28;20691;-76
2021/12/11 01:24:14;;;;;;;3.45;0.82;;;21.40;99.90;;;;;;5075182;28;20626;-77
2021/12/11 01:26:50;;;;;;;3.30;0.63;;;21.00;99.90;;;;;;5079206;28;20200;-76
2021/12/11 01:29:25;;;;;;;2.47;0.68;;;20.70;99.90;;;;;;5079403;28;20200;-76
2021/12/11 01:31:59;;;;;;;3.45;0.73;;;20.50;99.90;;;;;;5076871;28;20248;-76
2021/12/11 01:34:32;;;;;;;4.68;0.80;;;20.50;99.90;;;;;;5081410;28;20227;-77
2021/12/11 01:37:03;;;;;;;4.60;0.80;;;20.50;99.90;;;;;;5079608;28;20196;-77
2021/12/11 01:39:37;;;;;;;1.92;0.70;;;20.50;99.90;;;;;;5080687;28;20197;-78
2021/12/11 01:42:13;;;;;;;2.70;0.70;;;20.80;99.90;;;;;;5077852;28;20851;-78
2021/12/11 01:44:46;;;;;;;4.03;0.80;;;20.80;99.90;;;;;;5077940;28;20218;-77
2021/12/11 01:47:20;;;;;;;5.38;0.90;;;21.00;99.90;;;;;;5077714;28;20211;-78
2021/12/11 01:49:54;;;;;;;3.72;0.80;;;21.20;99.90;;;;;;5082523;28;20201;-78
2021/12/11 01:52:34;;;;;;;2.83;0.73;;;21.40;99.90;;;;;;5083475;28;20200;-78
2021/12/11 01:55:07;;;;;;;4.18;0.90;;;21.60;99.90;;;;;;5077111;28;20262;-77
2021/12/11 01:57:37;;;;;;;3.63;0.80;;;21.60;99.90;;;;;;5078862;28;20193;-77
2021/12/11 02:00:17;;;;;;;6.05;0.90;;;21.70;99.90;;;;;;5084048;28;20189;-77
2021/12/11 02:02:50;;;;;;;3.85;0.80;;;21.70;99.90;;;;;;5081134;28;20189;-77
2021/12/11 02:05:25;;;;;;;4.45;1.00;;;21.50;99.90;;;;;;5083380;28;20192;-77
2021/12/11 02:07:59;;;;;;;2.13;0.80;;;21.30;99.90;;;;;;5083963;28;20595;-77
2021/12/11 02:10:36;;;;;;;2.65;1.20;;;21.20;99.90;;;;;;5076498;28;20645;-78
2021/12/11 02:13:08;;;;;;;3.75;1.10;;;21.00;99.90;;;;;;5084069;28;20250;-77
2021/12/11 02:15:47;;;;;;;4.38;0.80;;;20.90;99.90;;;;;;5072434;28;20193;-77
2021/12/11 02:18:22;;;;;;;2.22;0.60;;;21.00;99.90;;;;;;5073809;28;20192;-78
2021/12/11 02:20:56;;;;;;;3.28;0.47;;;21.10;99.90;;;;;;5079262;28;20195;-77
2021/12/11 02:23:30;;;;;;;2.83;0.77;;;21.20;99.90;;;;;;5074008;28;20262;-79
2021/12/11 02:26:06;;;;;;;2.55;0.90;;;21.30;99.90;;;;;;5083240;28;20207;-76
2021/12/11 02:28:41;;;;;;;2.88;0.52;;;21.30;99.90;;;;;;5087861;28;20184;-79
2021/12/11 02:31:18;;;;;;;2.63;0.60;;;21.30;99.90;;;;;;5089506;28;20267;-78
2021/12/11 02:33:53;;;;;;;3.40;0.50;;;21.20;99.90;;;;;;5085538;28;20240;-78
2021/12/11 02:36:26;;;;;;;3.70;1.13;;;21.20;99.90;;;;;;5084557;28;20184;-77
2021/12/11 02:39:02;;;;;;;2.63;0.80;;;21.20;99.90;;;;;;5089808;28;20263;-76
2021/12/11 02:41:38;;;;;;;3.10;0.75;;;21.30;99.90;;;;;;5084661;28;20188;-75
2021/12/11 02:44:12;;;;;;;4.57;0.80;;;21.40;99.90;;;;;;5093091;28;20215;-77
2021/12/11 02:46:47;;;;;;;1.70;0.60;;;21.40;99.90;;;;;;5084884;28;20196;-77
2021/12/11 02:49:24;;;;;;;3.80;0.70;;;21.50;99.90;;;;;;5083093;28;20188;-76
2021/12/11 02:51:58;;;;;;;3.35;0.93;;;21.40;99.90;;;;;;5088616;28;20184;-75
2021/12/11 02:54:36;;;;;;;6.50;0.70;;;21.40;99.90;;;;;;5092173;28;20220;-77
2021/12/11 02:57:10;;;;;;;5.25;0.90;;;21.40;99.90;;;;;;5094734;28;20196;-77
2021/12/11 02:59:44;;;;;;;4.70;0.80;;;21.30;99.90;;;;;;5083983;28;20931;-76
2021/12/11 03:02:18;;;;;;;7.65;0.68;;;21.30;99.90;;;;;;5082270;28;20189;-78
2021/12/11 03:04:53;;;;;;;4.13;0.90;;;21.20;99.90;;;;;;5094573;28;20608;-78
2021/12/11 03:07:33;;;;;;;3.67;0.93;;;21.20;99.90;;;;;;5086526;28;20193;-77
2021/12/11 03:10:13;;;;;;;4.43;0.90;;;21.20;99.90;;;;;;5087606;28;20254;-76
2021/12/11 03:12:45;;;;;;;3.83;0.90;;;21.40;99.90;;;;;;5085900;28;20196;-79
2021/12/11 03:15:18;;;;;;;2.88;0.63;;;21.30;99.90;;;;;;5086244;28;20228;-77
2021/12/11 03:17:49;;;;;;;1.48;0.50;;;21.20;99.90;;;;;;5075659;28;20196;-79
2021/12/11 03:20:23;;;;;;;4.30;0.60;;;21.20;99.90;;;;;;5081110;28;20187;-78
2021/12/11 03:22:57;;;;;;;2.75;0.60;;;21.30;99.90;;;;;;5083352;28;20251;-76
2021/12/11 03:25:33;;;;;;;4.68;0.80;;;21.30;99.90;;;;;;5082031;28;20635;-77
2021/12/11 03:28:05;;;;;;;3.80;0.90;;;21.30;99.90;;;;;;5078436;28;20245;-76
2021/12/11 03:30:44;;;;;;;1.42;0.60;;;21.10;99.90;;;;;;5078017;28;20181;-76
2021/12/11 03:33:17;;;;;;;4.82;0.82;;;21.00;99.90;;;;;;5074589;28;20189;-76
2021/12/11 03:35:50;;;;;;;4.38;1.00;;;20.90;99.90;;;;;;5074856;28;20291;-77
2021/12/11 03:38:21;;;;;;;3.80;0.90;;;20.80;99.90;;;;;;5088533;28;20189;-76
2021/12/11 03:40:54;;;;;;;3.55;1.05;;;20.60;99.90;;;;;;5075193;28;20189;-76
2021/12/11 03:43:27;;;;;;;3.53;1.00;;;20.50;99.90;;;;;;5094170;28;20208;-76
2021/12/11 03:46:01;;;;;;;3.95;1.02;;;20.30;99.90;;;;;;5084109;28;20189;-77
2021/12/11 03:48:35;;;;;;;2.00;0.70;;;20.40;99.90;;;;;;5080190;28;20234;-76
2021/12/11 03:51:09;;;;;;;4.20;0.98;;;20.50;99.90;;;;;;5082904;28;20188;-76
2021/12/11 03:53:40;;;;;;;4.40;1.17;;;20.80;99.90;;;;;;5082083;28;20256;-76
2021/12/11 03:56:16;;;;;;;5.13;1.00;;;20.80;99.90;;;;;;5084647;28;20189;-76
2021/12/11 03:58:49;;;;;;;5.47;1.00;;;21.00;99.90;;;;;;5086367;28;20188;-75
2021/12/11 04:01:24;;;;;;;4.88;0.88;;;21.20;99.90;;;;;;5074095;28;20272;-77
2021/12/11 04:03:56;;;;;;;2.97;0.60;;;21.30;99.90;;;;;;5073987;28;20269;-75
2021/12/11 04:06:27;;;;;;;3.00;0.70;;;21.40;99.90;;;;;;5081040;28;20185;-76
2021/12/11 04:08:59;;;;;;;4.03;0.70;;;21.40;99.90;;;;;;5073695;28;20721;-76
2021/12/11 04:11:34;;;;;;;3.38;0.75;;;21.30;99.90;;;;;;5081972;28;20186;-76
2021/12/11 04:14:08;;;;;;;4.47;1.02;;;21.50;99.90;;;;;;5081957;28;20184;-75
2021/12/11 04:16:39;;;;;;;3.88;0.80;;;21.50;99.90;;;;;;5078481;28;20190;-78
2021/12/11 04:19:11;;;;;;;2.55;0.70;;;21.60;99.90;;;;;;5075808;28;20189;-77
2021/12/11 04:21:43;;;;;;;1.25;0.43;;;21.60;99.90;;;;;;5081508;28;20228;-76
2021/12/11 04:24:16;;;;;;;1.17;0.30;;;21.50;99.90;;;;;;5074017;28;20300;-77
2021/12/11 04:26:51;;;;;;;2.40;0.50;;;21.10;99.90;;;;;;5081638;28;20193;-77
2021/12/11 04:29:22;;;;;;;2.47;0.40;;;20.90;99.90;;;;;;5075535;28;20199;-77
2021/12/11 04:31:54;;;;;;;2.13;0.43;;;21.00;99.90;;;;;;5092652;28;20196;-76
2021/12/11 04:34:25;;;;;;;2.20;0.50;;;20.90;99.90;;;;;;5076343;28;20274;-78
2021/12/11 04:37:00;;;;;;;1.70;0.40;;;21.10;99.90;;;;;;5083986;28;20228;-76
2021/12/11 04:39:36;;;;;;;3.20;0.60;;;21.10;99.90;;;;;;5073935;28;20211;-77
2021/12/11 04:42:17;;;;;;;3.08;0.50;;;21.00;99.90;;;;;;5089537;28;20208;-77
2021/12/11 04:44:49;;;;;;;2.35;0.43;;;21.10;99.90;;;;;;5073210;28;20208;-75
2021/12/11 04:47:31;;;;;;;2.58;0.68;;;21.20;99.90;;;;;;5081959;28;20185;-76
2021/12/11 04:50:06;;;;;;;1.40;0.40;;;21.30;99.90;;;;;;5078516;28;20204;-76
2021/12/11 04:52:49;;;;;;;3.40;0.68;;;21.20;99.90;;;;;;5080643;28;20301;-76
2021/12/11 04:55:31;;;;;;;2.67;0.50;;;21.20;99.90;;;;;;5081267;28;20549;-76
2021/12/11 04:58:26;;;;;;;2.60;0.60;;;21.10;99.90;;;;;;5079130;28;20214;-77
2021/12/11 05:01:12;;;;;;;3.47;0.50;;;21.20;99.90;;;;;;5081257;28;20910;-77
2021/12/11 05:06:39;;;;;;;3.10;0.65;;;21.30;99.90;;;;;;5088739;28;20281;-77
2021/12/11 05:09:23;;;;;;;3.58;0.77;;;21.40;99.90;;;;;;5079246;28;20237;-75
2021/12/11 05:12:08;;;;;;;3.03;0.60;;;21.60;99.90;;;;;;5076632;28;20245;-75
2021/12/11 05:14:40;;;;;;;2.25;0.65;;;21.30;99.90;;;;;;5082648;28;20529;-77
2021/12/11 05:17:12;;;;;;;2.58;0.55;;;21.30;99.90;;;;;;5086472;28;20192;-77
2021/12/11 05:19:44;;;;;;;4.30;0.80;;;21.30;99.90;;;;;;5075196;28;20193;-77
2021/12/11 05:22:15;;;;;;;2.78;0.80;;;21.30;99.90;;;;;;5092430;28;20188;-76
2021/12/11 05:24:48;;;;;;;3.42;1.02;;;21.30;99.90;;;;;;5084043;28;20213;-76
2021/12/11 05:27:19;;;;;;;2.72;0.65;;;21.20;99.90;;;;;;5083783;28;20188;-76
2021/12/11 05:29:52;;;;;;;3.95;0.80;;;21.20;99.90;;;;;;5081914;28;20189;-76
2021/12/11 05:32:25;;;;;;;2.92;0.70;;;21.20;99.90;;;;;;5079242;28;20238;-76
2021/12/11 05:34:58;;;;;;;3.75;0.60;;;21.20;99.90;;;;;;5083712;28;20256;-76
2021/12/11 05:37:28;;;;;;;5.63;0.70;;;21.30;99.90;;;;;;5077249;28;20181;-75
2021/12/11 05:39:59;;;;;;;4.60;0.90;;;21.30;99.90;;;;;;5075466;28;20208;-74
2021/12/11 05:42:30;;;;;;;4.20;0.90;;;21.20;99.90;;;;;;5087367;28;20656;-75
2021/12/11 05:45:03;;;;;;;7.25;0.90;;;21.20;99.90;;;;;;5072941;28;20216;-76
2021/12/11 05:47:34;;;;;;;2.83;0.50;;;21.30;99.90;;;;;;5080962;28;20189;-76
2021/12/11 05:50:06;;;;;;;6.05;1.10;;;21.30;99.90;;;;;;5088194;28;20204;-76
2021/12/11 05:52:37;;;;;;;3.00;0.65;;;21.20;99.90;;;;;;5080714;28;20714;-76
2021/12/11 05:55:13;;;;;;;5.00;0.85;;;21.20;99.90;;;;;;5082944;28;20208;-75
2021/12/11 05:57:49;;;;;;;1.40;0.50;;;21.20;99.90;;;;;;5084660;28;20238;-74
2021/12/11 06:00:29;;;;;;;3.25;0.60;;;21.10;99.90;;;;;;5080834;28;20707;-77
2021/12/11 06:03:01;;;;;;;4.72;0.63;;;20.90;99.90;;;;;;5087567;28;20185;-75
2021/12/11 06:05:32;;;;;;;3.72;0.60;;;20.60;99.90;;;;;;5081775;28;20209;-75
2021/12/11 06:08:03;;;;;;;4.05;0.80;;;20.80;99.90;;;;;;5077824;28;20188;-76
2021/12/11 06:10:33;;;;;;;3.80;0.68;;;20.90;99.90;;;;;;5089502;28;20193;-78
2021/12/11 06:13:05;;;;;;;3.30;0.60;;;21.00;99.90;;;;;;5083941;28;20189;-76
2021/12/11 06:15:41;;;;;;;4.32;0.60;;;21.00;99.90;;;;;;5075938;28;20189;-77
2021/12/11 06:18:18;;;;;;;2.38;0.70;;;21.00;99.90;;;;;;5091502;28;20196;-77
2021/12/11 06:20:50;;;;;;;2.78;0.70;;;20.90;99.90;;;;;;5076168;28;20640;-77
2021/12/11 06:23:23;;;;;;;2.08;0.60;;;20.80;99.90;;;;;;5084196;28;20243;-78
2021/12/11 06:25:55;;;;;;;1.00;0.60;;;20.70;99.90;;;;;;5083730;28;20221;-77
2021/12/11 06:28:27;;;;;;;2.67;0.95;;;20.80;99.90;;;;;;5079666;28;20227;-77
2021/12/11 06:31:02;;;;;;;3.60;0.80;;;20.90;99.90;;;;;;5086363;28;20192;-77
2021/12/11 06:33:36;;;;;;;3.70;1.00;;;21.00;99.90;;;;;;5075473;28;20715;-77
2021/12/11 06:36:10;;;;;;;3.95;0.95;;;21.10;99.90;;;;;;5084137;28;20250;-77
2021/12/11 06:38:45;;;;;;;3.47;1.00;;;21.00;99.90;;;;;;5089257;28;20191;-76
2021/12/11 06:41:18;;;;;;;6.38;1.00;;;20.90;99.90;;;;;;5075423;28;20192;-76
2021/12/11 06:43:49;;;;;;;4.75;0.95;;;20.70;99.90;;;;;;5075358;28;20264;-76
2021/12/11 06:46:22;;;;;;;3.35;0.80;;;20.60;99.90;;;;;;5085469;28;20213;-78
2021/12/11 06:48:53;;;;;;;5.05;0.85;;;20.60;99.90;;;;;;5079507;28;20192;-77
2021/12/11 06:51:24;;;;;;;5.53;0.80;;;20.60;99.90;;;;;;5091795;28;20196;-76
2021/12/11 06:53:58;;;;;;;4.72;1.10;;;20.40;99.90;;;;;;5083115;28;20221;-78
2021/12/11 06:56:30;;;;;;;5.47;1.10;;;20.40;99.90;;;;;;5083583;28;20189;-76
2021/12/11 06:59:01;;;;;;;7.30;1.10;;;20.20;99.90;;;;;;5082501;28;20196;-77
2021/12/11 07:01:34;;;;;;;3.78;1.02;;;20.00;99.90;;;;;;5083030;28;20185;-77
2021/12/11 07:04:07;;;;;;;4.13;1.00;;;19.80;99.90;;;;;;5083336;28;20648;-76
2021/12/11 07:06:39;;;;;;;6.43;1.10;;;19.80;99.90;;;;;;5094011;28;20220;-76
2021/12/11 07:09:11;;;;;;;5.90;1.00;;;19.90;99.90;;;;;;5085375;28;20189;-75
2021/12/11 07:11:43;;;;;;;6.93;1.10;;;20.00;99.90;;;;;;5087299;28;20682;-75
2021/12/11 07:14:14;;;;;;;3.05;0.88;;;20.00;99.90;;;;;;5093832;28;20207;-75
2021/12/11 07:16:47;;;;;;;4.18;1.13;;;19.90;99.90;;;;;;5089214;28;20181;-76
2021/12/11 07:19:18;;;;;;;8.63;1.23;;;20.00;99.90;;;;;;5083842;28;20250;-76
2021/12/11 07:21:50;;;;;;;7.20;0.90;;;20.10;99.90;;;;;;5089063;28;20181;-76
2021/12/11 07:24:23;;;;;;;4.60;1.08;;;19.90;99.90;;;;;;5074435;28;20525;-75
2021/12/11 07:26:54;;;;;;;9.30;1.35;;;19.90;99.90;;;;;;5074803;28;20648;-75
2021/12/11 07:29:25;;;;;;;5.25;1.30;;;19.80;99.90;;;;;;5082557;28;20193;-75
2021/12/11 07:31:58;;;;;;;8.82;1.63;;;19.70;99.90;;;;;;5074691;28;20204;-75
2021/12/11 07:34:31;;;;;;;6.78;1.10;;;19.70;99.90;;;;;;5090469;28;20227;-76
2021/12/11 07:37:03;;;;;;;4.35;1.10;;;19.60;99.90;;;;;;5074442;28;20186;-75
2021/12/11 07:39:34;;;;;;;6.70;1.00;;;19.50;99.90;;;;;;5090452;28;20233;-75
2021/12/11 07:42:05;;;;;;;9.77;1.30;;;19.40;99.90;;;;;;5088713;28;20191;-75
2021/12/11 07:44:36;;;;;;;5.97;1.20;;;19.40;99.90;;;;;;5091381;28;20188;-76
2021/12/11 07:47:10;;;;;;;5.70;1.17;;;19.40;99.90;;;;;;5081134;28;20184;-76
2021/12/11 07:49:40;;;;;;;3.90;0.90;;;19.40;99.90;;;;;;5082754;28;20197;-76
2021/12/11 07:52:11;;;;;;;7.10;1.02;;;19.40;99.90;;;;;;5073955;28;20189;-75
2021/12/11 07:54:42;;;;;;;4.40;1.10;;;19.40;99.90;;;;;;5089367;28;20204;-76
2021/12/11 07:57:13;;;;;;;6.18;1.08;;;19.50;99.90;;;;;;5081254;28;20643;-77
2021/12/11 07:59:44;;;;;;;5.03;1.02;;;19.40;99.90;;;;;;5084793;28;20196;-77
2021/12/11 08:02:16;;;;;;;4.40;0.93;;;19.30;99.90;;;;;;5086663;28;20197;-75
2021/12/11 08:04:47;;;;;;;5.85;1.00;;;19.20;99.90;;;;;;5074133;28;20185;-75
2021/12/11 08:07:17;;;;;;;6.88;1.17;;;19.20;99.90;;;;;;5089032;28;20201;-76
2021/12/11 08:09:48;;;;;;;4.57;1.05;;;19.10;99.90;;;;;;5085397;28;20250;-75
2021/12/11 08:12:19;;;;;;;9.73;1.90;;;19.10;99.90;;;;;;5077995;28;20524;-76
2021/12/11 08:14:50;;;;;;;4.05;1.23;;;19.10;99.90;;;;;;5076806;28;20195;-75
2021/12/11 08:17:23;;;;;;;6.38;1.30;;;19.20;99.90;;;;;;5077705;28;20232;-75
2021/12/11 08:19:55;;;;;;;7.63;1.23;;;19.20;99.90;;;;;;5084126;28;20260;-75
2021/12/11 08:22:26;;;;;;;4.40;1.13;;;19.20;99.90;;;;;;5076705;28;20200;-75
2021/12/11 08:25:00;;;;;;;5.40;1.10;;;19.10;99.90;;;;;;5077076;28;20208;-75
2021/12/11 08:27:30;;;;;;;3.90;1.10;;;19.10;99.90;;;;;;5084339;28;20192;-76
2021/12/11 08:30:01;;;;;;;5.25;1.35;;;19.00;99.90;;;;;;5081277;28;20555;-76
2021/12/11 08:32:34;;;;;;;4.28;1.10;;;18.90;99.90;;;;;;5089222;28;20196;-76
2021/12/11 08:35:06;;;;;;;9.55;1.48;;;18.90;99.90;;;;;;5078350;28;20586;-76
2021/12/11 08:37:37;;;;;;;7.10;1.20;;;18.90;99.90;;;;;;5076723;28;20302;-77
2021/12/11 08:40:12;;;;;;;6.10;1.23;;;18.80;99.90;;;;;;5080037;28;20188;-76
2021/12/11 08:42:43;;;;;;;8.02;1.50;;;18.70;99.90;;;;;;5081818;28;20192;-76
2021/12/11 08:45:21;;;;;;;7.75;1.38;;;18.70;99.90;;;;;;5079282;28;20213;-76
2021/12/11 08:47:57;;;;;;;7.50;1.63;;;18.70;99.90;;;;;;5074935;28;20195;-77
2021/12/11 08:50:31;;;;;;;7.22;1.33;;;18.60;99.90;;;;;;5085641;28;20184;-76
2021/12/11 08:53:05;;;;;;;7.28;1.27;;;18.60;99.90;;;;;;5076468;28;20226;-77
2021/12/11 08:55:38;;;;;;;8.15;1.50;;;18.60;99.90;;;;;;5084280;28;20196;-76
2021/12/11 08:58:10;;;;;;;8.40;1.38;;;18.50;99.90;;;;;;5085543;28;20188;-76
2021/12/11 09:00:44;;;;;;;11.57;1.65;;;18.60;99.90;;;;;;5076628;28;20196;-76
2021/12/11 09:03:22;;;;;;;7.68;1.48;;;18.60;99.90;;;;;;5092383;28;20185;-76
2021/12/11 09:05:55;;;;;;;7.35;1.10;;;18.60;99.90;;;;;;5083187;28;20212;-75
2021/12/11 09:08:29;;;;;;;4.38;1.10;;;18.60;99.90;;;;;;5087360;28;20180;-74
2021/12/11 09:11:06;;;;;;;6.55;1.20;;;18.50;99.90;;;;;;5081974;28;20191;-74
2021/12/11 09:13:50;;;;;;;8.88;1.20;;;18.50;99.90;;;;;;5087315;28;20192;-74
2021/12/11 09:16:24;;;;;;;6.82;1.15;;;18.40;99.90;;;;;;5084827;28;20644;-74
2021/12/11 09:19:00;;;;;;;8.75;1.30;;;18.40;99.90;;;;;;5082699;28;20188;-75
2021/12/11 09:21:35;;;;;;;6.70;1.23;;;18.30;99.90;;;;;;5080003;28;20188;-75
2021/12/11 09:24:11;;;;;;;4.90;1.30;;;18.20;99.90;;;;;;5084632;28;20188;-76
2021/12/11 09:26:45;;;;;;;8.63;1.45;;;18.20;99.90;;;;;;5084330;28;20641;-75
2021/12/11 09:29:20;;;;;;;9.88;1.45;;;18.20;99.90;;;;;;5081457;28;20185;-74
2021/12/11 09:32:02;;;;;;;6.50;1.42;;;18.20;99.90;;;;;;5087826;28;20184;-75
2021/12/11 09:34:38;;;;;;;8.35;1.50;;;18.20;99.90;;;;;;5081362;28;20224;-76
2021/12/11 09:37:12;;;;;;;6.30;1.30;;;18.10;99.90;;;;;;5076939;28;20196;-74
2021/12/11 09:39:47;;;;;;;7.30;1.42;;;18.10;99.90;;;;;;5077445;28;20184;-75
2021/12/11 09:42:16;;;;;;;5.97;1.20;;;18.20;99.90;;;;;;5080502;28;20238;-75
2021/12/11 09:44:53;;;;;;;8.88;1.58;;;18.20;99.90;;;;;;5080551;28;20204;-75
2021/12/11 09:47:28;;;;;;;11.20;1.58;;;18.20;99.90;;;;;;5080951;28;20222;-75
2021/12/11 09:50:04;;;;;;;11.55;1.67;;;18.20;99.90;;;;;;5087167;28;20196;-75
2021/12/11 09:52:37;;;;;;;7.43;1.70;;;18.10;99.90;;;;;;5081847;28;20215;-75
2021/12/11 09:55:11;;;;;;;15.07;1.92;;;18.10;99.90;;;;;;5085438;28;20200;-75
2021/12/11 09:57:46;;;;;;;8.43;1.40;;;18.10;99.90;;;;;;5091484;28;20184;-75
2021/12/11 10:00:22;;;;;;;6.18;1.50;;;18.10;99.90;;;;;;5079889;28;20188;-75
2021/12/11 10:02:55;;;;;;;8.73;1.73;;;18.10;99.90;;;;;;5079847;28;20189;-75
2021/12/11 10:05:35;;;;;;;7.03;1.55;;;18.00;99.90;;;;;;5080378;28;20180;-75
2021/12/11 10:08:26;;;;;;;9.23;1.70;;;18.00;99.90;;;;;;5087142;28;20199;-74
2021/12/11 10:11:06;;;;;;;8.82;1.65;;;18.10;99.90;;;;;;5095603;28;20204;-74
2021/12/11 10:13:40;;;;;;;7.32;1.50;;;18.00;99.90;;;;;;5089240;28;20724;-74
2021/12/11 10:16:12;;;;;;;7.97;1.33;;;18.00;99.90;;;;;;5086941;28;20250;-74
2021/12/11 10:18:43;;;;;;;6.53;1.40;;;18.00;99.90;;;;;;5081622;28;20192;-74
2021/12/11 10:21:16;;;;;;;11.32;1.67;;;18.00;99.90;;;;;;5085668;28;20192;-74
2021/12/11 10:23:50;;;;;;;8.90;1.70;;;17.90;99.90;;;;;;5087753;28;20196;-74
2021/12/11 10:26:23;;;;;;;12.60;1.80;;;17.90;99.90;;;;;;5076192;28;20220;-73
2021/12/11 10:28:57;;;;;;;5.07;1.25;;;17.80;99.90;;;;;;5083740;28;20189;-74
2021/12/11 10:31:33;;;;;;;9.93;1.63;;;17.80;99.90;;;;;;5084361;28;20185;-74
2021/12/11 10:34:09;;;;;;;8.57;1.63;;;17.80;99.90;;;;;;5075607;28;20235;-74
2021/12/11 10:36:43;;;;;;;11.10;1.73;;;17.70;99.90;;;;;;5083855;28;20189;-73
2021/12/11 10:39:16;;;;;;;10.48;1.88;;;17.70;99.90;;;;;;5076822;28;20192;-74
2021/12/11 10:41:48;;;;;;;9.05;1.92;;;17.70;99.90;;;;;;5086869;28;20192;-73
2021/12/11 10:44:21;;;;;;;9.05;1.48;;;17.70;99.90;;;;;;5084994;28;20189;-74
2021/12/11 10:46:58;;;;;;;6.75;1.42;;;17.60;99.90;;;;;;5075338;28;20220;-74
2021/12/11 10:49:29;;;;;;;8.65;1.30;;;17.50;99.90;;;;;;5078841;28;20180;-73
2021/12/11 10:52:02;;;;;;;4.97;1.20;;;17.50;99.90;;;;;;5087063;28;20192;-74
2021/12/11 10:54:36;;;;;;;6.07;1.30;;;17.50;99.90;;;;;;5078564;28;20181;-74
2021/12/11 10:57:07;;;;;;;7.45;1.40;;;17.50;99.90;;;;;;5079388;28;20247;-73
2021/12/11 10:59:40;;;;;;;5.72;1.13;;;17.50;99.90;;;;;;5079357;28;20188;-74
2021/12/11 11:02:16;;;;;;;8.77;1.38;;;17.50;99.90;;;;;;5078347;28;20198;-73
2021/12/11 11:04:51;;;;;;;6.05;1.25;;;17.50;99.90;;;;;;5075457;28;20189;-74
2021/12/11 11:07:22;;;;;;;5.18;1.23;;;17.50;99.90;;;;;;5084419;28;20234;-73
2021/12/11 11:09:53;;;;;;;6.15;1.50;;;17.50;99.90;;;;;;5086311;28;20188;-74
2021/12/11 11:12:27;;;;;;;7.40;1.30;;;17.40;99.90;;;;;;5086548;28;20549;-75
2021/12/11 11:14:59;;;;;;;4.65;1.40;;;17.40;99.90;;;;;;5086724;28;20207;-76
2021/12/11 11:17:33;;;;;;;6.30;1.10;;;17.40;99.90;;;;;;5078558;28;20637;-75
2021/12/11 11:20:06;;;;;;;7.32;1.23;;;17.40;99.90;;;;;;5087885;28;20607;-77
2021/12/11 11:22:40;;;;;;;6.85;1.50;;;17.40;99.90;;;;;;5073879;28;20197;-76
2021/12/11 11:25:13;;;;;;;6.10;1.15;;;17.40;99.90;;;;;;5090080;28;20194;-75
2021/12/11 11:27:46;;;;;;;5.95;1.52;;;17.30;99.90;;;;;;5078206;28;20212;-76
2021/12/11 11:30:21;;;;;;;7.07;1.67;;;17.40;99.90;;;;;;5094532;28;20207;-75
2021/12/11 11:32:54;;;;;;;7.57;1.02;;;17.40;99.90;;;;;;5087131;28;20258;-76
2021/12/11 11:35:29;;;;;;;5.88;1.52;;;17.40;99.90;;;;;;5085138;28;20285;-75
2021/12/11 11:38:02;;;;;;;6.95;1.48;;;17.40;99.90;;;;;;5079163;28;20253;-75
2021/12/11 11:40:36;;;;;;;6.22;1.70;;;17.30;99.90;;;;;;5084085;28;20525;-76
2021/12/11 11:43:08;;;;;;;6.45;1.55;;;17.30;99.90;;;;;;5074353;28;20197;-75
2021/12/11 11:45:40;;;;;;;5.88;1.30;;;17.30;99.90;;;;;;5092524;28;20197;-77
2021/12/11 11:48:14;;;;;;;3.92;1.30;;;17.30;99.90;;;;;;5079162;28;20208;-75
2021/12/11 11:50:48;;;;;;;8.57;1.58;;;17.30;99.90;;;;;;5093716;28;20190;-76
2021/12/11 11:53:24;;;;;;;10.25;1.95;;;17.30;99.90;;;;;;5085718;28;20224;-76
2021/12/11 11:55:58;;;;;;;8.63;1.63;;;17.30;99.90;;;;;;5077797;28;20188;-76
2021/12/11 11:58:32;;;;;;;5.72;1.40;;;17.20;99.90;;;;;;5085211;28;20196;-75
2021/12/11 12:01:08;;;;;;;8.25;1.30;;;17.30;99.90;;;;;;5078877;28;20236;-76
2021/12/11 12:03:41;;;;;;;5.43;1.20;;;17.20;99.90;;;;;;5077331;28;20185;-76
2021/12/11 12:06:20;;;;;;;8.25;1.83;;;17.10;99.90;;;;;;5073604;28;20212;-75
2021/12/11 12:08:52;;;;;;;7.07;1.42;;;17.20;99.90;;;;;;5077035;28;20671;-76
2021/12/11 12:11:24;;;;;;;6.93;1.55;;;17.10;99.90;;;;;;5081756;28;20196;-75
2021/12/11 12:13:55;;;;;;;8.82;1.70;;;17.10;99.90;;;;;;5085268;28;20180;-76
2021/12/11 12:16:29;;;;;;;8.63;1.73;;;17.10;99.90;;;;;;5092050;28;20201;-75
2021/12/11 12:19:02;;;;;;;8.70;1.65;;;17.10;99.90;;;;;;5085737;28;20188;-76
2021/12/11 12:21:35;;;;;;;8.60;1.52;;;17.00;99.90;;;;;;5084334;28;20188;-76
2021/12/11 12:24:06;;;;;;;8.35;1.63;;;17.00;99.90;;;;;;5081243;28;20185;-76
2021/12/11 12:26:37;;;;;;;5.45;1.50;;;17.00;99.90;;;;;;5081528;28;20215;-76
2021/12/11 12:29:11;;;;;;;5.10;1.25;;;17.00;99.90;;;;;;5073498;28;20189;-74
2021/12/11 12:31:45;;;;;;;5.07;1.30;;;17.00;99.90;;;;;;5081971;28;20188;-76
2021/12/11 12:34:18;;;;;;;5.75;1.55;;;17.00;99.90;;;;;;5084937;28;20227;-76
2021/12/11 12:36:49;;;;;;;7.97;1.23;;;17.00;99.90;;;;;;5089560;28;20233;-76
2021/12/11 12:39:23;;;;;;;8.63;1.50;;;16.90;99.90;;;;;;5081957;28;20221;-75
2021/12/11 12:42:03;;;;;;;8.32;1.48;;;16.90;99.90;;;;;;5074776;28;20189;-75
2021/12/11 12:44:35;;;;;;;6.78;1.50;;;16.90;99.90;;;;;;5085453;28;20238;-76
2021/12/11 12:47:10;;;;;;;7.00;1.17;;;16.90;99.90;;;;;;5081255;28;20205;-76
2021/12/11 12:49:46;;;;;;;7.63;1.40;;;16.90;99.90;;;;;;5073161;28;20207;-75
2021/12/11 12:52:20;;;;;;;8.07;1.60;;;16.90;99.90;;;;;;5079756;28;20259;-77
2021/12/11 12:54:51;;;;;;;4.55;1.40;;;16.90;99.90;;;;;;5081516;28;20231;-76
2021/12/11 12:57:25;;;;;;;5.10;1.20;;;16.90;99.90;;;;;;5078999;28;20184;-77
2021/12/11 13:00:00;;;;;;;7.18;1.33;;;16.90;99.90;;;;;;5082678;28;20195;-76
2021/12/11 13:02:36;;;;;;;5.18;1.38;;;16.90;99.90;;;;;;5079896;28;20188;-76
2021/12/11 13:05:14;;;;;;;7.93;1.52;;;16.90;99.90;;;;;;5084441;28;20271;-77
2021/12/11 13:07:48;;;;;;;5.72;1.40;;;16.90;99.90;;;;;;5091413;28;20672;-76
2021/12/11 13:10:24;;;;;;;5.45;1.20;;;16.90;99.90;;;;;;5085585;28;20636;-77
2021/12/11 13:12:55;;;;;;;9.30;1.40;;;16.90;99.90;;;;;;5090791;28;20192;-76
2021/12/11 13:15:30;;;;;;;7.13;1.30;;;16.90;99.90;;;;;;5072926;28;20193;-77
2021/12/11 13:18:03;;;;;;;10.35;1.90;;;16.90;99.90;;;;;;5082323;28;20192;-76
2021/12/11 13:20:38;;;;;;;6.38;1.52;;;16.90;99.90;;;;;;5092250;28;20185;-76
2021/12/11 13:23:10;;;;;;;6.75;1.40;;;17.00;99.90;;;;;;5076004;28;20207;-77